Time;durP1;ratioP1;P1;durP2;ratioP2;P2;SDS_P1;SDS_P2;PMS_P1;PMS_P2;Temp;Humidity;BMP_temperature;BMP_pressure;BME280_temperature;BME280_humidity;BME280_pressure;Samples;Min_cycle;Max_cycle;Signal;HPM_P1;HPM_P2
2022/01/22 00:00:39;;;;;;;12.77;7.13;;;;;;;;;;2056100;28;20166;-62
2022/01/22 00:01:39;;;;;;;10.20;8.77;;;;;;;;;;2055528;28;20206;-60
2022/01/22 00:02:39;;;;;;;9.87;6.90;;;;;;;;;;2057802;28;20244;-62
2022/01/22 00:03:39;;;;;;;12.03;7.67;;;;;;;;;;2057751;28;20218;-61
2022/01/22 00:04:40;;;;;;;9.70;6.73;;;;;;;;;;2058182;28;20167;-61
2022/01/22 00:05:41;;;;;;;10.33;7.47;;;;;;;;;;2057605;28;20177;-61
2022/01/22 00:06:41;;;;;;;8.07;6.50;;;;;;;;;;2058034;28;20647;-62
2022/01/22 00:07:42;;;;;;;11.93;7.53;;;;;;;;;;2058330;28;20158;-63
2022/01/22 00:08:42;;;;;;;8.43;7.53;;;;;;;;;;2064911;28;20221;-63
2022/01/22 00:09:50;;;;;;;11.30;8.30;;;;;;;;;;2064804;28;20174;-59
2022/01/22 00:10:52;;;;;;;9.17;7.53;;;;;;;;;;2058080;28;20163;-63
2022/01/22 00:11:53;;;;;;;14.50;7.67;;;;;;;;;;2057088;28;20174;-61
2022/01/22 00:15:20;;;;;;;10.07;7.47;;;;;;;;;;2054847;28;20283;-56
2022/01/22 00:16:20;;;;;;;9.47;7.27;;;;;;;;;;2056510;28;20178;-61
2022/01/22 00:17:21;;;;;;;10.70;7.97;;;;;;;;;;2058356;28;20671;-61
2022/01/22 00:18:21;;;;;;;11.90;7.70;;;;;;;;;;2057612;28;20238;-62
2022/01/22 00:19:21;;;;;;;11.13;8.10;;;;;;;;;;2057588;28;20182;-63
2022/01/22 00:20:23;;;;;;;11.23;7.87;;;;;;;;;;2057529;28;20273;-62
2022/01/22 00:21:24;;;;;;;13.40;8.27;;;;;;;;;;2057181;28;20359;-62
2022/01/22 00:22:28;;;;;;;11.63;7.87;;;;;;;;;;2057770;28;20189;-63
2022/01/22 00:23:28;;;;;;;9.27;8.37;;;;;;;;;;2057871;28;20706;-59
2022/01/22 00:24:37;;;;;;;10.60;7.93;;;;;;;;;;2053267;28;20237;-60
2022/01/22 00:25:37;;;;;;;11.47;8.30;;;;;;;;;;2053601;28;20182;-59
2022/01/22 00:26:37;;;;;;;8.33;7.47;;;;;;;;;;2057567;28;20256;-61
2022/01/22 00:27:38;;;;;;;10.37;7.80;;;;;;;;;;2057918;28;20170;-60
2022/01/22 00:28:39;;;;;;;8.23;7.40;;;;;;;;;;2058437;28;20170;-61
2022/01/22 00:29:39;;;;;;;9.77;7.97;;;;;;;;;;2057802;28;20163;-59
2022/01/22 00:30:40;;;;;;;14.47;8.20;;;;;;;;;;2058301;28;20186;-62
2022/01/22 00:31:41;;;;;;;8.43;7.37;;;;;;;;;;2056473;28;20189;-62
2022/01/22 00:32:41;;;;;;;11.07;7.67;;;;;;;;;;2057274;28;20748;-62
2022/01/22 00:33:43;;;;;;;9.97;7.93;;;;;;;;;;2064429;28;20753;-62
2022/01/22 00:34:43;;;;;;;11.43;8.63;;;;;;;;;;2056821;28;20162;-61
2022/01/22 00:35:44;;;;;;;9.87;7.20;;;;;;;;;;2056819;28;20170;-62
2022/01/22 00:36:44;;;;;;;11.07;7.67;;;;;;;;;;2056497;28;20261;-60
2022/01/22 00:37:47;;;;;;;12.67;8.30;;;;;;;;;;2057513;28;20170;-61
2022/01/22 00:38:47;;;;;;;8.87;7.83;;;;;;;;;;2057308;28;20182;-63
2022/01/22 00:39:47;;;;;;;10.80;7.93;;;;;;;;;;2056564;28;20891;-63
2022/01/22 00:40:51;;;;;;;10.83;8.13;;;;;;;;;;2064796;28;20170;-62
2022/01/22 00:41:51;;;;;;;8.97;8.00;;;;;;;;;;2054111;28;20195;-64
2022/01/22 00:42:52;;;;;;;11.77;8.13;;;;;;;;;;2048719;29;20171;-63
2022/01/22 00:43:53;;;;;;;9.97;7.30;;;;;;;;;;2048789;29;20609;-62
2022/01/22 00:44:54;;;;;;;10.20;8.20;;;;;;;;;;2049119;28;20218;-65
2022/01/22 00:45:54;;;;;;;11.90;8.30;;;;;;;;;;2040939;29;20247;-62
2022/01/22 00:46:54;;;;;;;11.60;7.77;;;;;;;;;;2048790;29;20183;-63
2022/01/22 00:47:54;;;;;;;12.40;8.10;;;;;;;;;;2056075;28;20166;-63
2022/01/22 00:48:55;;;;;;;13.67;8.57;;;;;;;;;;2056834;28;20253;-61
2022/01/22 00:49:55;;;;;;;10.23;8.90;;;;;;;;;;2057706;28;20197;-61
2022/01/22 00:50:57;;;;;;;14.50;8.00;;;;;;;;;;2057876;28;20179;-62
2022/01/22 00:51:57;;;;;;;12.70;7.33;;;;;;;;;;2055983;28;20190;-62
2022/01/22 00:52:57;;;;;;;11.33;8.23;;;;;;;;;;2049428;29;20251;-62
2022/01/22 00:53:58;;;;;;;11.43;8.47;;;;;;;;;;2056200;28;20241;-62
2022/01/22 00:54:58;;;;;;;9.80;7.73;;;;;;;;;;2065212;28;20182;-60
2022/01/22 00:55:58;;;;;;;13.00;8.90;;;;;;;;;;2056644;28;20299;-61
2022/01/22 00:56:58;;;;;;;13.83;8.37;;;;;;;;;;2048845;28;20218;-62
2022/01/22 00:57:59;;;;;;;13.87;9.07;;;;;;;;;;2048249;28;20187;-62
2022/01/22 00:58:59;;;;;;;11.07;7.43;;;;;;;;;;2048311;29;20190;-61
2022/01/22 00:59:59;;;;;;;9.57;8.43;;;;;;;;;;2052193;28;20186;-63
2022/01/22 01:01:00;;;;;;;10.93;8.43;;;;;;;;;;2064246;28;20196;-64
2022/01/22 01:02:01;;;;;;;14.40;9.30;;;;;;;;;;2056139;28;20182;-61
2022/01/22 01:03:01;;;;;;;9.00;8.03;;;;;;;;;;2056683;28;20180;-62
2022/01/22 01:04:03;;;;;;;13.70;9.13;;;;;;;;;;2065372;28;20665;-63
2022/01/22 01:05:04;;;;;;;11.87;8.93;;;;;;;;;;2054123;28;20187;-60
2022/01/22 01:06:05;;;;;;;11.17;8.33;;;;;;;;;;2053175;28;20544;-62
2022/01/22 01:07:06;;;;;;;16.67;9.17;;;;;;;;;;2048802;28;20183;-63
2022/01/22 01:08:06;;;;;;;16.83;9.37;;;;;;;;;;2049112;28;20277;-62
2022/01/22 01:09:07;;;;;;;12.33;9.27;;;;;;;;;;2057209;28;20197;-62
2022/01/22 01:10:10;;;;;;;10.20;9.20;;;;;;;;;;2056836;28;20179;-62
2022/01/22 01:11:13;;;;;;;13.70;9.77;;;;;;;;;;2056739;28;20549;-59
2022/01/22 01:12:13;;;;;;;12.87;8.70;;;;;;;;;;2056067;28;20196;-62
2022/01/22 01:13:15;;;;;;;11.93;8.00;;;;;;;;;;2048413;28;20222;-62
2022/01/22 01:14:23;;;;;;;11.20;8.20;;;;;;;;;;2048838;28;20727;-61
2022/01/22 01:15:56;;;;;;;13.23;8.87;;;;;;;;;;2057199;28;20182;-62
2022/01/22 01:32:26;;;;;;;11.30;7.90;;;;;;;;;;2057094;28;20269;-62
2022/01/22 01:33:40;;;;;;;9.03;7.73;;;;;;;;;;2056365;28;20624;-62
2022/01/22 01:34:43;;;;;;;12.10;9.00;;;;;;;;;;2055575;28;20264;-62
2022/01/22 01:35:43;;;;;;;14.17;7.67;;;;;;;;;;2057020;28;20162;-62
2022/01/22 01:36:44;;;;;;;12.40;8.23;;;;;;;;;;2057119;28;20240;-61
2022/01/22 01:37:46;;;;;;;10.03;8.30;;;;;;;;;;2056861;28;20220;-61
2022/01/22 01:38:53;;;;;;;9.63;8.03;;;;;;;;;;2046286;28;20175;-61
2022/01/22 01:39:59;;;;;;;11.97;8.43;;;;;;;;;;2056534;28;20179;-58
2022/01/22 01:41:07;;;;;;;11.20;8.17;;;;;;;;;;2051937;28;20678;-62
2022/01/22 01:42:12;;;;;;;9.10;7.57;;;;;;;;;;2056447;28;20205;-61
2022/01/22 01:43:22;;;;;;;12.97;8.43;;;;;;;;;;2055887;28;20175;-62
2022/01/22 01:44:39;;;;;;;10.77;7.87;;;;;;;;;;2051175;28;20182;-59
2022/01/22 01:46:05;;;;;;;9.10;7.60;;;;;;;;;;2047856;28;20186;-61
2022/01/22 01:47:06;;;;;;;8.93;7.90;;;;;;;;;;2056150;28;20170;-62
2022/01/22 01:48:14;;;;;;;10.27;8.00;;;;;;;;;;2046433;29;20183;-62
2022/01/22 01:49:15;;;;;;;8.97;7.93;;;;;;;;;;2046856;28;20231;-59
2022/01/22 01:50:15;;;;;;;12.63;8.13;;;;;;;;;;2062060;28;20716;-60
2022/01/22 01:51:16;;;;;;;11.13;7.70;;;;;;;;;;2063680;28;20201;-61
2022/01/22 01:52:23;;;;;;;10.37;7.73;;;;;;;;;;2063755;28;20174;-61
2022/01/22 01:55:35;;;;;;;12.03;8.17;;;;;;;;;;2056111;28;20175;-62
2022/01/22 01:58:05;;;;;;;10.50;8.37;;;;;;;;;;2052008;28;20167;-60
2022/01/22 01:59:12;;;;;;;14.30;9.20;;;;;;;;;;2056582;28;20236;-60
2022/01/22 02:00:17;;;;;;;10.17;8.70;;;;;;;;;;2055541;28;20171;-60
2022/01/22 02:01:17;;;;;;;10.57;8.37;;;;;;;;;;2056898;28;20198;-61
2022/01/22 02:02:18;;;;;;;9.93;8.20;;;;;;;;;;2058963;28;20196;-63
2022/01/22 02:03:19;;;;;;;11.53;8.07;;;;;;;;;;2050526;28;20186;-62
2022/01/22 02:04:26;;;;;;;14.37;9.17;;;;;;;;;;2044434;28;20236;-62
2022/01/22 02:05:27;;;;;;;11.00;8.33;;;;;;;;;;2049022;28;20255;-62
2022/01/22 02:06:32;;;;;;;11.90;9.90;;;;;;;;;;2048632;28;20246;-60
2022/01/22 02:07:37;;;;;;;11.67;9.10;;;;;;;;;;2048882;29;20211;-59
2022/01/22 02:08:43;;;;;;;14.43;9.90;;;;;;;;;;2052851;28;20162;-58
2022/01/22 02:09:49;;;;;;;12.47;9.90;;;;;;;;;;2050355;28;20187;-59
2022/01/22 02:10:57;;;;;;;11.97;9.53;;;;;;;;;;2047704;28;20202;-60
2022/01/22 02:13:42;;;;;;;12.53;9.47;;;;;;;;;;2054540;28;20170;-58
2022/01/22 02:14:03;;;;;;;13.20;8.73;;;;;;;;;;2048934;28;20194;-61
2022/01/22 02:24:38;;;;;;;13.03;9.10;;;;;;;;;;2049673;28;20164;-62
2022/01/22 02:25:39;;;;;;;14.53;9.00;;;;;;;;;;2047920;29;20690;-62
2022/01/22 02:26:44;;;;;;;14.30;9.47;;;;;;;;;;2047978;29;20331;-62
2022/01/22 02:27:45;;;;;;;15.67;10.10;;;;;;;;;;2048390;28;20225;-61
2022/01/22 02:28:52;;;;;;;11.40;8.83;;;;;;;;;;2056985;28;20201;-62
2022/01/22 02:30:02;;;;;;;12.60;8.70;;;;;;;;;;2064327;28;20665;-62
2022/01/22 02:31:40;;;;;;;10.40;8.03;;;;;;;;;;2036206;29;20220;-61
2022/01/22 02:33:54;;;;;;;11.33;8.90;;;;;;;;;;2056099;28;20177;-62
2022/01/22 02:35:46;;;;;;;10.60;9.43;;;;;;;;;;2063211;28;20181;-62
2022/01/22 02:36:28;;;;;;;11.70;9.30;;;;;;;;;;2051222;28;20588;-61
2022/01/22 02:37:35;;;;;;;11.80;9.43;;;;;;;;;;2047946;28;20199;-62
2022/01/22 02:38:47;;;;;;;14.27;10.40;;;;;;;;;;2059212;28;20177;-62
2022/01/22 02:40:08;;;;;;;12.93;9.70;;;;;;;;;;2051709;28;20166;-62
2022/01/22 02:41:13;;;;;;;12.63;9.63;;;;;;;;;;2056146;28;20210;-59
2022/01/22 02:42:14;;;;;;;11.37;10.17;;;;;;;;;;2055101;28;20282;-61
2022/01/22 02:43:15;;;;;;;16.10;11.10;;;;;;;;;;2055210;28;20170;-59
2022/01/22 02:44:45;;;;;;;12.77;10.60;;;;;;;;;;2056317;28;20170;-62
2022/01/22 02:45:43;;;;;;;15.60;9.57;;;;;;;;;;2051041;28;20244;-61
2022/01/22 02:46:45;;;;;;;16.53;9.97;;;;;;;;;;2055729;28;20254;-60
2022/01/22 02:47:46;;;;;;;13.83;10.03;;;;;;;;;;2056043;28;20229;-61
2022/01/22 02:48:46;;;;;;;13.93;11.03;;;;;;;;;;2047721;28;20211;-60
2022/01/22 02:49:46;;;;;;;12.57;10.13;;;;;;;;;;2039987;29;20175;-62
2022/01/22 02:50:47;;;;;;;17.93;10.87;;;;;;;;;;2053441;28;20174;-62
2022/01/22 02:51:48;;;;;;;15.97;10.93;;;;;;;;;;2055797;28;20201;-61
2022/01/22 02:52:48;;;;;;;16.47;10.23;;;;;;;;;;2056364;28;20671;-62
2022/01/22 02:53:50;;;;;;;14.73;10.53;;;;;;;;;;2056660;28;20194;-62
2022/01/22 02:54:50;;;;;;;16.80;10.77;;;;;;;;;;2054714;28;20162;-61
2022/01/22 02:55:52;;;;;;;17.87;10.13;;;;;;;;;;2056610;28;20186;-62
2022/01/22 02:56:52;;;;;;;14.87;10.23;;;;;;;;;;2056423;28;20646;-62
2022/01/22 02:57:53;;;;;;;13.20;10.30;;;;;;;;;;2056663;28;20182;-62
2022/01/22 02:58:53;;;;;;;15.27;10.20;;;;;;;;;;2047324;29;20206;-61
2022/01/22 02:59:54;;;;;;;13.37;10.33;;;;;;;;;;2047788;28;20610;-62
2022/01/22 03:00:55;;;;;;;15.20;10.67;;;;;;;;;;2048353;28;20182;-61
2022/01/22 03:01:55;;;;;;;17.03;10.97;;;;;;;;;;2047991;29;20186;-61
2022/01/22 03:02:55;;;;;;;10.97;9.77;;;;;;;;;;2056432;28;20178;-62
2022/01/22 03:04:00;;;;;;;13.97;10.73;;;;;;;;;;2063683;28;20166;-62
2022/01/22 03:05:01;;;;;;;14.00;10.07;;;;;;;;;;2055347;28;20694;-62
2022/01/22 03:06:01;;;;;;;16.43;9.87;;;;;;;;;;2055858;28;20177;-62
2022/01/22 03:07:02;;;;;;;12.67;9.80;;;;;;;;;;2056661;28;20186;-62
2022/01/22 03:08:07;;;;;;;13.63;9.80;;;;;;;;;;2063887;28;20184;-60
2022/01/22 03:09:10;;;;;;;14.20;10.40;;;;;;;;;;2063341;28;20543;-61
2022/01/22 03:10:13;;;;;;;11.20;9.33;;;;;;;;;;2055790;28;20181;-61
2022/01/22 03:11:19;;;;;;;11.80;9.80;;;;;;;;;;2056040;28;20198;-63
2022/01/22 03:13:59;;;;;;;11.83;9.93;;;;;;;;;;2041145;29;20180;-63
2022/01/22 03:15:29;;;;;;;13.10;9.97;;;;;;;;;;2053243;28;20531;-62
2022/01/22 03:16:51;;;;;;;11.40;9.73;;;;;;;;;;2054299;28;20177;-61
2022/01/22 03:19:03;;;;;;;12.77;9.60;;;;;;;;;;2050085;28;20565;-62
2022/01/22 03:22:42;;;;;;;11.30;9.67;;;;;;;;;;2051330;28;20171;-62
2022/01/22 03:27:40;;;;;;;12.27;8.57;;;;;;;;;;2043137;28;20183;-61
2022/01/22 03:28:53;;;;;;;16.87;9.83;;;;;;;;;;2056505;28;20240;-63
2022/01/22 03:29:54;;;;;;;11.83;9.33;;;;;;;;;;2056071;28;20245;-62
2022/01/22 03:30:55;;;;;;;11.93;9.40;;;;;;;;;;2055802;28;20827;-59
2022/01/22 03:31:55;;;;;;;13.03;9.30;;;;;;;;;;2047672;29;20183;-60
2022/01/22 03:32:56;;;;;;;13.13;8.57;;;;;;;;;;2048302;29;20570;-61
2022/01/22 03:33:59;;;;;;;13.13;9.07;;;;;;;;;;2064247;28;20264;-62
2022/01/22 03:35:09;;;;;;;19.03;9.07;;;;;;;;;;2056306;28;20696;-62
2022/01/22 03:36:11;;;;;;;12.13;9.03;;;;;;;;;;2057513;28;20166;-60
2022/01/22 03:37:11;;;;;;;11.73;8.90;;;;;;;;;;2065392;28;20897;-61
2022/01/22 03:38:12;;;;;;;13.93;9.77;;;;;;;;;;2057286;28;20209;-62
2022/01/22 03:39:12;;;;;;;13.20;10.00;;;;;;;;;;2052706;28;20175;-62
2022/01/22 03:40:14;;;;;;;13.27;8.30;;;;;;;;;;2041209;29;20172;-62
2022/01/22 03:41:14;;;;;;;12.07;9.13;;;;;;;;;;2049828;28;20254;-62
2022/01/22 03:42:18;;;;;;;12.60;9.23;;;;;;;;;;2055543;28;20178;-62
2022/01/22 03:43:18;;;;;;;12.77;8.87;;;;;;;;;;2050038;29;20655;-63
2022/01/22 03:44:20;;;;;;;15.17;9.73;;;;;;;;;;2048320;28;20186;-63
2022/01/22 03:45:22;;;;;;;12.47;9.93;;;;;;;;;;2057949;28;20212;-62
2022/01/22 03:46:23;;;;;;;13.13;9.30;;;;;;;;;;2057510;28;20201;-60
2022/01/22 03:47:26;;;;;;;12.83;9.97;;;;;;;;;;2050362;28;20174;-62
2022/01/22 03:48:27;;;;;;;15.23;10.50;;;;;;;;;;2049727;28;20282;-61
2022/01/22 03:49:27;;;;;;;14.00;10.30;;;;;;;;;;2058175;28;20593;-60
2022/01/22 03:50:27;;;;;;;16.03;10.63;;;;;;;;;;2057823;28;20663;-61
2022/01/22 03:51:28;;;;;;;14.83;10.30;;;;;;;;;;2057294;28;20277;-61
2022/01/22 03:52:28;;;;;;;15.40;10.43;;;;;;;;;;2057037;28;20182;-61
2022/01/22 03:53:29;;;;;;;15.97;10.70;;;;;;;;;;2048996;29;20242;-62
2022/01/22 03:54:30;;;;;;;16.17;9.80;;;;;;;;;;2049677;28;20190;-62
2022/01/22 03:55:46;;;;;;;15.37;10.73;;;;;;;;;;2049871;29;20197;-60
2022/01/22 03:57:08;;;;;;;16.23;10.83;;;;;;;;;;2056438;28;20284;-62
2022/01/22 03:58:17;;;;;;;15.90;11.27;;;;;;;;;;2057213;28;20178;-62
2022/01/22 03:59:19;;;;;;;15.80;11.47;;;;;;;;;;2049792;28;20171;-62
2022/01/22 04:00:32;;;;;;;17.37;11.93;;;;;;;;;;2051475;28;20663;-62
2022/01/22 04:04:15;;;;;;;14.90;10.77;;;;;;;;;;2058113;28;20150;-61
2022/01/22 04:05:15;;;;;;;17.57;10.00;;;;;;;;;;2057692;28;20226;-62
2022/01/22 04:08:59;;;;;;;14.40;10.27;;;;;;;;;;2053354;28;21005;-60
2022/01/22 04:10:02;;;;;;;17.67;11.00;;;;;;;;;;2054442;28;20236;-61
2022/01/22 04:11:04;;;;;;;19.30;10.17;;;;;;;;;;2057603;28;20252;-60
2022/01/22 04:12:04;;;;;;;15.57;10.40;;;;;;;;;;2056752;28;20792;-62
2022/01/22 04:13:09;;;;;;;15.57;10.70;;;;;;;;;;2057045;28;20170;-61
2022/01/22 04:14:17;;;;;;;15.23;10.27;;;;;;;;;;2049971;28;20265;-62
2022/01/22 04:15:21;;;;;;;13.87;10.33;;;;;;;;;;2057310;28;20204;-61
2022/01/22 04:16:22;;;;;;;21.03;11.33;;;;;;;;;;2058541;28;20225;-60
2022/01/22 04:17:39;;;;;;;15.53;10.03;;;;;;;;;;2058487;28;20206;-56
2022/01/22 04:24:50;;;;;;;12.77;9.90;;;;;;;;;;2059191;28;20254;-61
2022/01/22 04:25:22;;;;;;;15.00;10.73;;;;;;;;;;2052273;28;20191;-56
2022/01/22 04:27:27;;;;;;;13.97;10.17;;;;;;;;;;2055725;28;20186;-61
2022/01/22 04:28:27;;;;;;;14.30;9.97;;;;;;;;;;2056245;28;20206;-61
2022/01/22 04:29:28;;;;;;;16.50;10.30;;;;;;;;;;2058565;28;20185;-60
2022/01/22 04:30:28;;;;;;;14.53;9.60;;;;;;;;;;2058780;28;20184;-61
2022/01/22 04:31:28;;;;;;;16.07;9.93;;;;;;;;;;2058891;28;20617;-61
2022/01/22 04:32:30;;;;;;;11.33;8.90;;;;;;;;;;2065868;28;20680;-61
2022/01/22 04:33:30;;;;;;;12.53;8.70;;;;;;;;;;2066356;28;20245;-62
2022/01/22 04:34:31;;;;;;;13.60;8.90;;;;;;;;;;2058287;28;20635;-61
2022/01/22 04:35:31;;;;;;;12.93;8.83;;;;;;;;;;2049402;29;20206;-61
2022/01/22 04:36:32;;;;;;;16.73;9.63;;;;;;;;;;2057155;28;20376;-59
2022/01/22 04:37:32;;;;;;;11.90;9.10;;;;;;;;;;2052971;28;20676;-61
2022/01/22 04:38:32;;;;;;;13.20;9.67;;;;;;;;;;2048444;29;20632;-59
2022/01/22 04:39:33;;;;;;;14.80;9.43;;;;;;;;;;2057020;28;20245;-63
2022/01/22 04:40:33;;;;;;;16.37;9.93;;;;;;;;;;2066713;28;20638;-61
2022/01/22 04:41:33;;;;;;;14.27;10.50;;;;;;;;;;2071456;23;20332;-58
2022/01/22 04:42:36;;;;;;;12.90;9.67;;;;;;;;;;2063090;28;20184;-62
2022/01/22 04:43:39;;;;;;;10.53;8.90;;;;;;;;;;2054200;28;20698;-60
2022/01/22 04:45:04;;;;;;;15.17;10.67;;;;;;;;;;2062258;28;20260;-59
2022/01/22 04:55:28;;;;;;;13.03;8.23;;;;;;;;;;2075933;28;20680;-61
2022/01/22 04:56:29;;;;;;;11.97;8.67;;;;;;;;;;2072212;28;20177;-59
2022/01/22 04:57:30;;;;;;;11.20;8.90;;;;;;;;;;2064383;28;20220;-62
2022/01/22 04:58:31;;;;;;;11.43;9.30;;;;;;;;;;2064294;28;20256;-60
2022/01/22 04:59:31;;;;;;;15.27;8.80;;;;;;;;;;2064081;28;20169;-64
2022/01/22 05:00:34;;;;;;;14.20;8.23;;;;;;;;;;2072474;28;20173;-62
2022/01/22 05:01:55;;;;;;;16.63;8.40;;;;;;;;;;2069129;28;20212;-60
2022/01/22 05:03:30;;;;;;;13.47;8.77;;;;;;;;;;2072685;28;20181;-62
2022/01/22 05:04:42;;;;;;;16.17;9.27;;;;;;;;;;2064773;28;20192;-62
2022/01/22 05:06:01;;;;;;;11.13;8.33;;;;;;;;;;2066118;28;20193;-61
2022/01/22 05:07:09;;;;;;;15.13;8.83;;;;;;;;;;2065315;28;20317;-62
2022/01/22 05:08:21;;;;;;;16.50;9.70;;;;;;;;;;2060708;28;20201;-61
2022/01/22 05:09:34;;;;;;;14.40;9.60;;;;;;;;;;2062045;28;20158;-62
2022/01/22 05:10:35;;;;;;;14.50;8.50;;;;;;;;;;2071921;28;20259;-62
2022/01/22 05:11:36;;;;;;;11.83;8.63;;;;;;;;;;2066161;28;20201;-62
2022/01/22 05:12:39;;;;;;;13.63;9.53;;;;;;;;;;2064480;28;20558;-60
2022/01/22 05:13:40;;;;;;;13.87;8.97;;;;;;;;;;2072775;28;20180;-62
2022/01/22 05:14:43;;;;;;;16.07;9.60;;;;;;;;;;2073400;28;20169;-62
2022/01/22 05:15:44;;;;;;;12.03;8.47;;;;;;;;;;2070140;28;20201;-62
2022/01/22 05:16:44;;;;;;;10.10;7.20;;;;;;;;;;2050018;28;20225;-60
2022/01/22 05:17:47;;;;;;;10.47;7.27;;;;;;;;;;2050622;28;20310;-61
2022/01/22 05:18:57;;;;;;;16.23;6.60;;;;;;;;;;2065797;28;20321;-62
2022/01/22 05:20:13;;;;;;;9.27;7.30;;;;;;;;;;2065925;28;20217;-62
2022/01/22 05:21:16;;;;;;;11.77;7.63;;;;;;;;;;2059190;28;20193;-62
2022/01/22 05:23:36;;;;;;;8.37;6.93;;;;;;;;;;2060523;28;20212;-62
2022/01/22 05:24:41;;;;;;;10.70;6.73;;;;;;;;;;2065156;28;20178;-62
2022/01/22 05:25:47;;;;;;;12.00;7.23;;;;;;;;;;2057567;28;20181;-62
2022/01/22 05:27:18;;;;;;;8.40;6.60;;;;;;;;;;2065830;28;20177;-62
2022/01/22 05:31:35;;;;;;;8.90;6.67;;;;;;;;;;2065057;28;20181;-61
2022/01/22 05:32:57;;;;;;;12.23;6.67;;;;;;;;;;2070155;28;20696;-61
2022/01/22 05:37:59;;;;;;;11.57;6.33;;;;;;;;;;2072643;28;20189;-63
2022/01/22 05:39:00;;;;;;;10.10;6.33;;;;;;;;;;2064598;28;20985;-57
2022/01/22 05:40:00;;;;;;;13.03;6.30;;;;;;;;;;2071179;28;20229;-60
2022/01/22 05:41:01;;;;;;;8.63;5.80;;;;;;;;;;2072135;28;20169;-59
2022/01/22 05:42:03;;;;;;;10.90;6.80;;;;;;;;;;2068837;28;20232;-61
2022/01/22 05:43:04;;;;;;;11.33;6.83;;;;;;;;;;2065804;28;20168;-59
2022/01/22 05:44:04;;;;;;;11.50;6.10;;;;;;;;;;2073369;28;20645;-59
2022/01/22 05:45:05;;;;;;;9.13;5.47;;;;;;;;;;2070621;28;20175;-59
2022/01/22 05:46:06;;;;;;;6.93;6.23;;;;;;;;;;2064442;28;20633;-61
2022/01/22 05:47:06;;;;;;;13.30;5.57;;;;;;;;;;2072858;28;20345;-61
2022/01/22 05:48:08;;;;;;;8.47;5.80;;;;;;;;;;2073111;28;20177;-58
2022/01/22 05:49:08;;;;;;;6.20;5.40;;;;;;;;;;2072087;28;20581;-57
2022/01/22 05:50:14;;;;;;;7.57;5.53;;;;;;;;;;2061129;28;20174;-54
2022/01/22 05:51:16;;;;;;;7.53;5.30;;;;;;;;;;2063225;28;20251;-61
2022/01/22 05:52:23;;;;;;;8.90;5.20;;;;;;;;;;2063076;28;20174;-61
2022/01/22 05:59:36;;;;;;;8.33;5.20;;;;;;;;;;2073003;28;20176;-59
2022/01/22 06:00:37;;;;;;;7.83;4.70;;;;;;;;;;2070016;28;20173;-58
2022/01/22 06:01:48;;;;;;;6.67;4.97;;;;;;;;;;2063675;28;20205;-60
2022/01/22 06:02:54;;;;;;;6.20;4.50;;;;;;;;;;2066156;28;20181;-60
2022/01/22 06:03:55;;;;;;;5.30;4.80;;;;;;;;;;2072739;28;20197;-59
2022/01/22 06:04:55;;;;;;;7.50;5.90;;;;;;;;;;2064887;28;20232;-58
2022/01/22 06:05:56;;;;;;;5.83;5.23;;;;;;;;;;2064142;28;20185;-58
2022/01/22 06:06:57;;;;;;;7.50;5.10;;;;;;;;;;2061889;28;20184;-57
2022/01/22 06:07:57;;;;;;;4.95;4.47;;;;;;;;;;2064803;28;20181;-62
2022/01/22 06:09:01;;;;;;;6.47;4.70;;;;;;;;;;2064974;28;20625;-55
2022/01/22 06:10:16;;;;;;;7.63;5.30;;;;;;;;;;2065209;28;20182;-57
2022/01/22 06:11:23;;;;;;;6.50;5.20;;;;;;;;;;2065921;28;20244;-55
2022/01/22 06:13:46;;;;;;;5.17;4.67;;;;;;;;;;2064962;28;20188;-57
2022/01/22 06:14:51;;;;;;;7.60;5.30;;;;;;;;;;2066506;28;20220;-56
2022/01/22 06:15:52;;;;;;;6.73;4.63;;;;;;;;;;2063727;28;20181;-52
2022/01/22 06:17:04;;;;;;;9.80;6.00;;;;;;;;;;2068595;28;20181;-53
2022/01/22 06:18:08;;;;;;;8.10;5.30;;;;;;;;;;2062620;28;20236;-51
2022/01/22 06:19:09;;;;;;;7.20;5.40;;;;;;;;;;2064178;28;20264;-49
2022/01/22 06:20:13;;;;;;;8.90;5.70;;;;;;;;;;2064156;28;20172;-57
2022/01/22 06:21:14;;;;;;;8.17;5.80;;;;;;;;;;2064442;28;20265;-52
2022/01/22 06:22:16;;;;;;;7.87;5.67;;;;;;;;;;2062915;28;20182;-50
2022/01/22 06:23:16;;;;;;;10.97;5.37;;;;;;;;;;2072234;28;20219;-51
2022/01/22 06:24:21;;;;;;;10.33;5.57;;;;;;;;;;2072310;28;20176;-47
2022/01/22 06:25:21;;;;;;;8.13;5.50;;;;;;;;;;2070549;28;20264;-50
2022/01/22 06:26:21;;;;;;;9.67;6.03;;;;;;;;;;2063928;28;20244;-49
2022/01/22 06:27:22;;;;;;;12.80;7.53;;;;;;;;;;2063896;28;20273;-52
2022/01/22 06:28:23;;;;;;;13.90;7.77;;;;;;;;;;2062828;28;20181;-53
2022/01/22 06:29:25;;;;;;;10.73;5.72;;;;;;;;;;2062645;28;20201;-48
2022/01/22 06:30:26;;;;;;;11.17;6.63;;;;;;;;;;2072085;28;20203;-48
2022/01/22 06:31:28;;;;;;;6.63;5.83;;;;;;;;;;2063952;28;20646;-54
2022/01/22 06:32:30;;;;;;;7.03;5.63;;;;;;;;;;2064135;28;20619;-52
2022/01/22 06:33:30;;;;;;;7.23;4.93;;;;;;;;;;2072192;28;20169;-50
2022/01/22 06:34:31;;;;;;;5.23;4.43;;;;;;;;;;2072347;28;20181;-51
2022/01/22 06:35:32;;;;;;;5.80;4.45;;;;;;;;;;2064096;28;20180;-52
2022/01/22 06:36:32;;;;;;;8.57;4.93;;;;;;;;;;2064084;28;20638;-53
2022/01/22 06:37:36;;;;;;;4.73;4.23;;;;;;;;;;2062395;28;20205;-48
2022/01/22 06:39:09;;;;;;;6.10;4.17;;;;;;;;;;2071818;28;20193;-51
2022/01/22 06:41:53;;;;;;;6.80;4.97;;;;;;;;;;2072724;28;20270;-51
2022/01/22 06:43:10;;;;;;;7.80;4.47;;;;;;;;;;2070266;28;20230;-54
2022/01/22 06:44:34;;;;;;;7.57;4.90;;;;;;;;;;2072153;28;20773;-50
2022/01/22 06:45:54;;;;;;;10.57;5.43;;;;;;;;;;2072467;28;20215;-48
2022/01/22 06:46:55;;;;;;;6.47;4.93;;;;;;;;;;2072059;28;20176;-55
2022/01/22 06:48:31;;;;;;;6.63;4.83;;;;;;;;;;2073115;28;20184;-57
2022/01/22 06:49:54;;;;;;;6.30;4.67;;;;;;;;;;2071043;28;20173;-50
2022/01/22 06:51:12;;;;;;;6.50;4.57;;;;;;;;;;2071190;28;20569;-49
2022/01/22 06:52:15;;;;;;;7.03;4.80;;;;;;;;;;2071494;28;20168;-53
2022/01/22 06:53:20;;;;;;;7.63;5.40;;;;;;;;;;2063846;28;20188;-55
2022/01/22 06:54:24;;;;;;;7.90;4.93;;;;;;;;;;2063605;28;20580;-56
2022/01/22 06:55:36;;;;;;;8.07;5.23;;;;;;;;;;2063786;28;20174;-55
2022/01/22 06:56:37;;;;;;;8.33;5.37;;;;;;;;;;2071705;28;20616;-59
2022/01/22 06:57:44;;;;;;;7.33;5.47;;;;;;;;;;2061953;28;20632;-52
2022/01/22 06:58:51;;;;;;;7.23;5.37;;;;;;;;;;2062768;28;20566;-52
2022/01/22 06:59:51;;;;;;;7.63;5.33;;;;;;;;;;2062039;28;20169;-54
2022/01/22 07:00:53;;;;;;;5.33;4.67;;;;;;;;;;2070101;28;20169;-50
2022/01/22 07:01:58;;;;;;;6.20;4.57;;;;;;;;;;2062382;28;20252;-53
2022/01/22 07:03:02;;;;;;;7.73;4.83;;;;;;;;;;2063278;28;20586;-57
2022/01/22 07:04:02;;;;;;;6.73;4.97;;;;;;;;;;2068539;28;20265;-56
2022/01/22 07:05:27;;;;;;;12.07;4.90;;;;;;;;;;2066318;28;20572;-48
2022/01/22 07:06:41;;;;;;;5.43;4.60;;;;;;;;;;2071290;28;20747;-51
2022/01/22 07:07:42;;;;;;;5.67;4.80;;;;;;;;;;2063059;28;20276;-49
2022/01/22 07:08:42;;;;;;;5.07;4.50;;;;;;;;;;2060913;28;20184;-53
2022/01/22 07:09:44;;;;;;;6.13;4.47;;;;;;;;;;2062807;28;20196;-58
2022/01/22 07:10:45;;;;;;;7.43;4.57;;;;;;;;;;2062182;28;20196;-50
2022/01/22 07:11:45;;;;;;;4.90;4.50;;;;;;;;;;2055231;28;20552;-53
2022/01/22 07:12:46;;;;;;;6.77;4.77;;;;;;;;;;2063513;28;20303;-53
2022/01/22 07:13:47;;;;;;;5.87;4.30;;;;;;;;;;2062394;28;20242;-56
2022/01/22 07:14:49;;;;;;;6.07;4.90;;;;;;;;;;2063780;28;20173;-53
2022/01/22 07:15:50;;;;;;;5.30;3.97;;;;;;;;;;2059599;28;20175;-52
2022/01/22 07:16:54;;;;;;;5.13;4.30;;;;;;;;;;2061092;28;20599;-57
2022/01/22 07:18:06;;;;;;;5.73;4.27;;;;;;;;;;2064740;28;20170;-50
2022/01/22 07:19:08;;;;;;;4.67;4.27;;;;;;;;;;2071546;28;20200;-61
2022/01/22 07:20:13;;;;;;;5.93;4.40;;;;;;;;;;2072287;28;20187;-60
2022/01/22 07:21:18;;;;;;;4.20;3.80;;;;;;;;;;2063515;28;20176;-60
2022/01/22 07:22:40;;;;;;;6.43;4.13;;;;;;;;;;2061409;28;20182;-58
2022/01/22 07:24:22;;;;;;;5.57;4.37;;;;;;;;;;2070816;28;20259;-59
2022/01/22 07:25:23;;;;;;;4.63;4.23;;;;;;;;;;2076073;28;20170;-59
2022/01/22 07:26:23;;;;;;;4.28;3.88;;;;;;;;;;2072468;28;20208;-59
2022/01/22 07:27:44;;;;;;;4.83;4.30;;;;;;;;;;2071660;28;20231;-48
2022/01/22 07:28:44;;;;;;;4.80;4.20;;;;;;;;;;2070533;28;20168;-55
2022/01/22 07:29:48;;;;;;;4.77;4.33;;;;;;;;;;2069385;28;20851;-51
2022/01/22 07:30:48;;;;;;;5.25;4.75;;;;;;;;;;2071314;28;20172;-50
2022/01/22 07:31:52;;;;;;;4.97;4.57;;;;;;;;;;2062390;28;20667;-53
2022/01/22 07:32:53;;;;;;;4.97;4.47;;;;;;;;;;2059681;28;20185;-56
2022/01/22 07:33:53;;;;;;;6.43;4.50;;;;;;;;;;2070606;28;20181;-56
2022/01/22 07:34:54;;;;;;;4.43;4.03;;;;;;;;;;2071063;28;20181;-58
2022/01/22 07:35:56;;;;;;;4.57;4.17;;;;;;;;;;2070583;28;20173;-60
2022/01/22 07:36:58;;;;;;;5.30;4.17;;;;;;;;;;2062716;28;20239;-60
2022/01/22 07:38:00;;;;;;;4.47;4.07;;;;;;;;;;2061975;28;20268;-58
2022/01/22 07:39:00;;;;;;;5.57;4.13;;;;;;;;;;2071054;28;20193;-62
2022/01/22 07:40:01;;;;;;;5.57;4.20;;;;;;;;;;2070967;28;20180;-53
2022/01/22 07:41:27;;;;;;;4.63;3.70;;;;;;;;;;2066625;28;20188;-57
2022/01/22 07:42:56;;;;;;;4.83;3.97;;;;;;;;;;2055517;28;20194;-57
2022/01/22 07:44:15;;;;;;;4.70;3.97;;;;;;;;;;2057466;28;20715;-51